Time;durP1;ratioP1;P1;durP2;ratioP2;P2;SDS_P1;SDS_P2;PMS_P1;PMS_P2;Temp;Humidity;BMP_temperature;BMP_pressure;BME280_temperature;BME280_humidity;BME280_pressure;Samples;Min_cycle;Max_cycle;Signal;HPM_P1;HPM_P2
2024/01/12 00:02:21;;;;;;;13.80;8.85;;;15.80;32.60;;;;;;5149730;27;45465;-69
2024/01/12 00:04:53;;;;;;;13.77;9.38;;;15.80;32.70;;;;;;5149888;27;45327;-68
2024/01/12 00:07:20;;;;;;;13.75;8.98;;;15.80;32.60;;;;;;5150315;27;45156;-68
2024/01/12 00:09:48;;;;;;;13.48;9.38;;;15.80;32.60;;;;;;5150290;27;45389;-68
2024/01/12 00:12:14;;;;;;;15.68;10.82;;;15.80;32.60;;;;;;5147164;27;46150;-68
2024/01/12 00:14:41;;;;;;;13.65;10.98;;;15.80;32.60;;;;;;5149925;27;45322;-68
2024/01/12 00:17:08;;;;;;;12.73;8.77;;;15.80;32.60;;;;;;5150018;27;45347;-68
2024/01/12 00:19:35;;;;;;;13.70;10.50;;;15.70;32.60;;;;;;5150035;27;45481;-68
2024/01/12 00:22:02;;;;;;;13.98;11.25;;;15.70;32.50;;;;;;5149652;27;45360;-69
2024/01/12 00:24:28;;;;;;;16.80;11.82;;;15.70;32.60;;;;;;5149373;27;45314;-69
2024/01/12 00:26:57;;;;;;;14.07;11.23;;;15.70;32.60;;;;;;5149801;27;45307;-68
2024/01/12 00:29:23;;;;;;;14.38;10.90;;;15.60;32.60;;;;;;5149980;27;45365;-67
2024/01/12 00:31:50;;;;;;;14.70;11.00;;;15.70;32.60;;;;;;5149480;27;45328;-67
2024/01/12 00:34:17;;;;;;;15.30;11.75;;;15.60;32.60;;;;;;5148845;27;45430;-67
2024/01/12 00:36:44;;;;;;;14.25;9.65;;;15.60;32.60;;;;;;5149695;27;45374;-69
2024/01/12 00:39:11;;;;;;;14.90;9.20;;;15.60;32.60;;;;;;5149686;27;45364;-68
2024/01/12 00:41:37;;;;;;;14.93;10.13;;;15.60;32.60;;;;;;5148951;27;46567;-68
2024/01/12 00:44:07;;;;;;;14.13;9.07;;;15.60;32.60;;;;;;5146746;27;45259;-68
2024/01/12 00:46:34;;;;;;;12.63;8.63;;;15.60;32.60;;;;;;5149676;27;45362;-68
2024/01/12 00:49:00;;;;;;;14.88;8.93;;;15.60;32.60;;;;;;5149687;27;45475;-68
2024/01/12 00:51:27;;;;;;;13.48;10.40;;;15.60;32.60;;;;;;5149122;27;45537;-68
2024/01/12 00:53:54;;;;;;;13.10;10.68;;;15.60;32.50;;;;;;5149154;27;45283;-68
2024/01/12 00:56:21;;;;;;;13.02;10.13;;;15.60;32.50;;;;;;5149338;27;45325;-67
2024/01/12 00:58:48;;;;;;;15.00;9.57;;;15.50;32.50;;;;;;5149817;27;45412;-68
2024/01/12 01:01:17;;;;;;;13.30;10.68;;;15.50;32.50;;;;;;5148937;27;45415;-68
2024/01/12 01:03:43;;;;;;;12.50;9.60;;;15.50;32.50;;;;;;5149114;27;45271;-68
2024/01/12 01:06:10;;;;;;;13.57;9.02;;;15.50;32.50;;;;;;5149485;27;45359;-68
2024/01/12 01:08:37;;;;;;;11.52;8.75;;;15.50;32.50;;;;;;5149297;27;45468;-68
2024/01/12 01:11:05;;;;;;;12.93;10.35;;;15.50;32.50;;;;;;5148950;27;45498;-68
2024/01/12 01:13:35;;;;;;;12.85;10.43;;;15.50;32.50;;;;;;5148832;27;45335;-68
2024/01/12 01:16:02;;;;;;;13.40;10.30;;;15.50;32.40;;;;;;5149411;27;45397;-68
2024/01/12 01:18:31;;;;;;;12.30;9.25;;;15.50;32.40;;;;;;5148313;27;45601;-68
2024/01/12 01:20:58;;;;;;;12.70;9.75;;;15.50;32.40;;;;;;5148645;27;45543;-68
2024/01/12 01:23:25;;;;;;;15.20;9.52;;;15.40;32.40;;;;;;5148722;27;45352;-69
2024/01/12 01:25:53;;;;;;;14.52;9.45;;;15.40;32.40;;;;;;5148950;27;45405;-68
2024/01/12 01:28:20;;;;;;;13.50;10.93;;;15.40;32.40;;;;;;5148965;27;45352;-68
2024/01/12 01:30:47;;;;;;;14.20;11.48;;;15.40;32.30;;;;;;5148459;27;46677;-68
2024/01/12 01:33:14;;;;;;;13.43;11.00;;;15.40;32.40;;;;;;5148694;27;45260;-68
2024/01/12 01:35:42;;;;;;;16.20;11.57;;;15.40;32.30;;;;;;5147787;27;45294;-68
2024/01/12 01:38:09;;;;;;;14.35;9.35;;;15.40;32.30;;;;;;5148980;27;45427;-68
2024/01/12 01:40:36;;;;;;;12.23;8.93;;;15.40;32.40;;;;;;5148317;27;45428;-68
2024/01/12 01:43:07;;;;;;;14.65;11.00;;;15.40;32.30;;;;;;5148365;27;45282;-68
2024/01/12 01:45:36;;;;;;;14.20;9.82;;;15.30;32.30;;;;;;5148775;27;45368;-68
2024/01/12 01:48:03;;;;;;;13.20;10.98;;;15.30;32.30;;;;;;5148744;27;45271;-68
2024/01/12 01:50:30;;;;;;;15.00;11.05;;;15.30;32.30;;;;;;5148209;27;45333;-68
2024/01/12 01:52:58;;;;;;;15.63;11.38;;;15.30;32.30;;;;;;5148236;27;45357;-68
2024/01/12 01:55:25;;;;;;;14.30;11.25;;;15.30;32.30;;;;;;5148570;27;45392;-68
2024/01/12 01:57:51;;;;;;;14.90;11.52;;;15.30;32.20;;;;;;5148694;27;45472;-68
2024/01/12 02:00:18;;;;;;;13.02;11.43;;;15.30;32.20;;;;;;5148199;27;46403;-68
2024/01/12 02:02:45;;;;;;;15.95;11.55;;;15.30;32.90;;;;;;5147279;27;45268;-68
2024/01/12 02:05:13;;;;;;;13.40;9.05;;;15.20;32.30;;;;;;5148134;27;45304;-68
2024/01/12 02:07:40;;;;;;;15.65;11.18;;;15.20;32.30;;;;;;5148616;27;45373;-68
2024/01/12 02:10:09;;;;;;;13.75;10.23;;;15.20;32.90;;;;;;5148066;27;46379;-69
2024/01/12 02:12:36;;;;;;;15.93;11.13;;;15.20;32.20;;;;;;5148038;27;45240;-68
2024/01/12 02:15:03;;;;;;;16.02;11.60;;;15.20;32.30;;;;;;5148207;27;45695;-69
2024/01/12 02:17:30;;;;;;;14.93;11.40;;;15.20;32.30;;;;;;5148455;27;45573;-68
2024/01/12 02:20:00;;;;;;;13.52;11.07;;;15.20;32.30;;;;;;5148138;27;46233;-68
2024/01/12 02:22:28;;;;;;;15.57;11.63;;;15.20;32.30;;;;;;5147874;27;45312;-68
2024/01/12 02:24:55;;;;;;;13.98;10.90;;;15.10;32.30;;;;;;5148166;27;45386;-69
2024/01/12 02:27:22;;;;;;;14.43;10.98;;;15.10;32.30;;;;;;5148238;27;45425;-68
2024/01/12 02:29:50;;;;;;;13.52;11.45;;;15.10;32.30;;;;;;5147680;27;45524;-69
2024/01/12 02:32:17;;;;;;;16.17;10.43;;;15.10;32.20;;;;;;5147724;27;45332;-68
2024/01/12 02:34:43;;;;;;;14.60;9.40;;;15.10;32.20;;;;;;5148058;27;45724;-69
2024/01/12 02:37:10;;;;;;;14.98;11.18;;;15.10;32.30;;;;;;5148081;27;45451;-68
2024/01/12 02:39:39;;;;;;;13.93;9.98;;;15.10;32.30;;;;;;5147666;27;45372;-68
2024/01/12 02:42:06;;;;;;;14.43;8.82;;;15.10;32.30;;;;;;5147318;27;45930;-68
2024/01/12 02:44:33;;;;;;;15.00;10.43;;;15.10;32.30;;;;;;5147798;27;45303;-68
2024/01/12 02:47:00;;;;;;;12.77;10.32;;;15.10;32.90;;;;;;5149390;27;45441;-68
2024/01/12 02:49:26;;;;;;;13.07;10.23;;;15.10;32.30;;;;;;5151136;27;45253;-70
2024/01/12 02:51:53;;;;;;;12.75;10.13;;;15.10;32.30;;;;;;5151308;27;45400;-69
2024/01/12 02:54:20;;;;;;;13.40;10.50;;;15.10;32.30;;;;;;5151422;27;45300;-68
2024/01/12 02:56:48;;;;;;;12.55;8.73;;;15.10;32.30;;;;;;5151519;27;45381;-68
2024/01/12 02:59:15;;;;;;;12.90;10.25;;;15.10;32.30;;;;;;5151192;27;46375;-68
2024/01/12 03:01:42;;;;;;;13.40;9.82;;;15.10;32.30;;;;;;5151045;27;45423;-68
2024/01/12 03:04:09;;;;;;;12.50;7.88;;;15.00;32.20;;;;;;5150994;27;45345;-68
2024/01/12 03:06:36;;;;;;;14.57;10.02;;;15.00;32.20;;;;;;5151443;27;45394;-68
2024/01/12 03:09:02;;;;;;;11.20;8.13;;;15.00;32.20;;;;;;5151042;27;45418;-68
2024/01/12 03:11:29;;;;;;;13.65;9.10;;;15.00;32.20;;;;;;5150859;27;45413;-69
2024/01/12 03:13:57;;;;;;;12.82;10.43;;;15.00;32.20;;;;;;5150922;27;45495;-68
2024/01/12 03:16:24;;;;;;;14.60;9.63;;;15.00;32.20;;;;;;5151342;27;45406;-68
2024/01/12 03:18:51;;;;;;;12.35;7.82;;;15.00;32.20;;;;;;5150681;27;48413;-68
2024/01/12 03:21:18;;;;;;;11.65;9.20;;;15.00;32.20;;;;;;5150596;27;45261;-68
2024/01/12 03:23:45;;;;;;;11.65;10.07;;;15.00;32.20;;;;;;5150819;27;45396;-68
2024/01/12 03:26:12;;;;;;;12.88;9.75;;;15.00;32.20;;;;;;5150924;27;45354;-68
2024/01/12 03:28:38;;;;;;;12.10;10.15;;;15.00;32.20;;;;;;5150150;27;45528;-68
2024/01/12 03:31:07;;;;;;;14.20;11.00;;;15.00;32.20;;;;;;5150069;27;45193;-69
2024/01/12 03:33:34;;;;;;;13.45;10.32;;;14.90;32.10;;;;;;5150577;27;45258;-68
2024/01/12 03:36:01;;;;;;;12.77;8.50;;;14.90;32.10;;;;;;5150777;27;45415;-69
2024/01/12 03:38:28;;;;;;;13.18;10.38;;;14.90;32.20;;;;;;5150309;27;46395;-69
2024/01/12 03:40:54;;;;;;;13.52;10.27;;;14.90;32.20;;;;;;5149884;27;45388;-68
2024/01/12 03:43:21;;;;;;;13.40;10.18;;;14.90;32.10;;;;;;5150194;27;45338;-68
2024/01/12 03:45:48;;;;;;;11.73;9.35;;;14.90;32.10;;;;;;5150424;27;45297;-68
2024/01/12 03:48:16;;;;;;;13.57;9.57;;;14.90;32.10;;;;;;5150064;27;47270;-68
2024/01/12 03:50:43;;;;;;;12.70;8.65;;;14.90;32.10;;;;;;5149914;27;45380;-68
2024/01/12 03:53:10;;;;;;;12.70;8.68;;;14.90;32.00;;;;;;5149933;27;45322;-68
2024/01/12 03:55:37;;;;;;;13.85;9.75;;;14.80;32.00;;;;;;5150400;27;45476;-68
2024/01/12 03:58:04;;;;;;;12.88;10.48;;;14.80;32.10;;;;;;5148971;27;45329;-68
2024/01/12 04:00:31;;;;;;;12.95;10.55;;;14.80;32.00;;;;;;5149996;27;45539;-68
2024/01/12 04:02:57;;;;;;;14.35;10.63;;;14.80;32.00;;;;;;5150261;27;45381;-68
2024/01/12 04:05:26;;;;;;;12.85;9.90;;;14.80;32.00;;;;;;5150312;27;45366;-68
2024/01/12 04:07:52;;;;;;;12.95;9.68;;;14.80;32.00;;;;;;5150136;27;45456;-68
2024/01/12 04:10:19;;;;;;;13.60;10.13;;;14.80;32.00;;;;;;5149955;27;45303;-68
2024/01/12 04:12:46;;;;;;;13.77;9.77;;;14.80;32.00;;;;;;5149391;27;45466;-68
2024/01/12 04:15:13;;;;;;;12.43;9.32;;;14.80;32.00;;;;;;5150309;27;45380;-69
2024/01/12 04:17:40;;;;;;;12.63;7.90;;;14.80;32.00;;;;;;5149416;27;46379;-68
2024/01/12 04:20:08;;;;;;;12.15;9.23;;;14.80;32.00;;;;;;5150056;27;45367;-68
2024/01/12 04:22:36;;;;;;;14.10;7.55;;;14.80;32.00;;;;;;5147127;27;45278;-68
2024/01/12 04:25:03;;;;;;;14.13;10.32;;;14.80;32.00;;;;;;5150170;27;45364;-69
2024/01/12 04:27:30;;;;;;;12.23;9.63;;;14.80;32.00;;;;;;5149661;27;45545;-68
2024/01/12 04:29:57;;;;;;;13.68;9.98;;;14.70;32.00;;;;;;5149634;27;45399;-68
2024/01/12 04:32:24;;;;;;;13.68;10.30;;;14.70;32.00;;;;;;5149839;27;45369;-68
2024/01/12 04:34:50;;;;;;;15.43;10.43;;;14.70;32.00;;;;;;5149842;27;45442;-68
2024/01/12 04:37:17;;;;;;;14.38;10.75;;;14.70;32.00;;;;;;5149371;27;46377;-68
2024/01/12 04:39:45;;;;;;;13.55;10.18;;;14.70;32.00;;;;;;5149676;27;45350;-68
2024/01/12 04:42:12;;;;;;;14.38;10.43;;;14.70;32.00;;;;;;5149224;27;45279;-68
2024/01/12 04:44:42;;;;;;;15.35;10.52;;;14.70;31.90;;;;;;5149579;27;45319;-68
2024/01/12 04:47:09;;;;;;;12.90;10.38;;;14.70;31.90;;;;;;5149866;27;47957;-68
2024/01/12 04:49:36;;;;;;;11.93;10.15;;;14.70;32.00;;;;;;5149405;27;45185;-68
2024/01/12 04:52:03;;;;;;;13.23;9.95;;;14.60;31.90;;;;;;5149582;27;45200;-68
2024/01/12 04:54:30;;;;;;;13.25;10.20;;;14.60;31.90;;;;;;5149361;27;45543;-68
2024/01/12 04:56:58;;;;;;;12.77;10.50;;;14.60;31.90;;;;;;5148798;27;45433;-68
2024/01/12 04:59:25;;;;;;;12.35;10.00;;;14.60;31.90;;;;;;5149501;27;45394;-68
2024/01/12 05:01:52;;;;;;;14.15;9.68;;;14.60;31.90;;;;;;5149292;27;45267;-68
2024/01/12 05:04:24;;;;;;;12.60;9.85;;;14.60;31.90;;;;;;5149240;27;45174;-68
2024/01/12 05:06:51;;;;;;;12.27;9.93;;;14.60;31.90;;;;;;5149095;27;45438;-68
2024/01/12 05:09:17;;;;;;;13.23;10.05;;;14.60;31.90;;;;;;5148675;27;45224;-68
2024/01/12 05:11:44;;;;;;;12.52;10.00;;;14.60;32.00;;;;;;5149009;27;45204;-68
2024/01/12 05:14:13;;;;;;;14.93;10.40;;;14.60;32.00;;;;;;5149060;27;45317;-69
2024/01/12 05:16:39;;;;;;;11.90;9.60;;;14.60;32.00;;;;;;5149160;27;46363;-68
2024/01/12 05:19:06;;;;;;;13.80;10.30;;;14.60;31.90;;;;;;5149201;27;45242;-69
2024/01/12 05:21:33;;;;;;;12.65;10.15;;;14.60;31.90;;;;;;5148811;27;45289;-68
2024/01/12 05:24:00;;;;;;;10.95;8.63;;;14.60;31.90;;;;;;5148917;27;45434;-69
2024/01/12 05:26:27;;;;;;;10.40;8.30;;;14.60;31.90;;;;;;5146226;27;45467;-69
2024/01/12 05:28:53;;;;;;;11.18;7.25;;;14.60;31.90;;;;;;5149093;27;45404;-68
2024/01/12 05:31:22;;;;;;;10.45;8.68;;;14.50;31.90;;;;;;5148838;27;45451;-69
2024/01/12 05:33:48;;;;;;;11.15;9.05;;;14.50;31.90;;;;;;5148389;27;45239;-69
2024/01/12 05:36:16;;;;;;;13.27;9.00;;;14.50;31.90;;;;;;5148214;27;46641;-69
2024/01/12 05:38:42;;;;;;;11.65;8.15;;;14.50;31.90;;;;;;5147852;27;45357;-68
2024/01/12 05:41:10;;;;;;;10.55;8.57;;;14.50;31.90;;;;;;5148039;27;45289;-69
2024/01/12 05:43:36;;;;;;;11.95;8.90;;;14.50;31.80;;;;;;5148090;27;45322;-69
2024/01/12 05:46:04;;;;;;;11.85;8.73;;;14.50;31.80;;;;;;5147858;27;45532;-68
2024/01/12 05:48:32;;;;;;;12.00;8.57;;;14.50;31.80;;;;;;5148395;27;45320;-68
2024/01/12 05:51:00;;;;;;;12.35;9.13;;;14.50;31.80;;;;;;5148469;27;45417;-71
2024/01/12 05:53:26;;;;;;;11.88;9.55;;;14.50;31.90;;;;;;5148763;27;45450;-68
2024/01/12 05:55:53;;;;;;;12.25;9.00;;;14.50;31.80;;;;;;5148583;27;45413;-68
2024/01/12 05:58:20;;;;;;;12.02;8.60;;;14.50;31.80;;;;;;5148804;27;45195;-69
2024/01/12 06:00:47;;;;;;;11.77;7.77;;;14.50;31.80;;;;;;5148543;27;45312;-68
2024/01/12 06:03:14;;;;;;;11.98;8.90;;;14.50;31.80;;;;;;5148301;27;45437;-69
2024/01/12 06:05:45;;;;;;;12.07;9.68;;;14.40;31.80;;;;;;5148139;27;45475;-69
2024/01/12 06:08:12;;;;;;;10.88;9.05;;;14.40;31.80;;;;;;5148892;27;45317;-69
2024/01/12 06:10:39;;;;;;;11.27;9.40;;;14.40;31.80;;;;;;5148350;27;45363;-69
2024/01/12 06:13:06;;;;;;;11.80;9.40;;;14.40;31.80;;;;;;5148455;27;45399;-69
2024/01/12 06:15:33;;;;;;;12.80;9.38;;;14.40;31.80;;;;;;5147990;27;45854;-70
2024/01/12 06:18:00;;;;;;;12.23;9.25;;;14.50;31.70;;;;;;5147578;27;45343;-69
2024/01/12 06:20:27;;;;;;;12.10;8.80;;;14.50;31.70;;;;;;5147941;27;45393;-69
2024/01/12 06:22:55;;;;;;;12.80;10.05;;;14.50;31.60;;;;;;5148677;27;45433;-69
2024/01/12 06:25:23;;;;;;;13.63;8.85;;;14.60;31.60;;;;;;5151660;27;45362;-68
2024/01/12 06:27:50;;;;;;;12.38;9.60;;;14.70;31.50;;;;;;5152214;27;45322;-69
2024/01/12 06:30:17;;;;;;;12.00;9.40;;;14.70;31.30;;;;;;5152030;27;45312;-69
2024/01/12 06:32:44;;;;;;;14.48;10.40;;;14.80;31.20;;;;;;5151822;27;45450;-69
2024/01/12 06:35:11;;;;;;;12.15;10.32;;;14.90;31.10;;;;;;5149157;27;46160;-69
2024/01/12 06:37:38;;;;;;;12.43;8.10;;;15.00;31.00;;;;;;5151502;27;45291;-69
2024/01/12 06:40:08;;;;;;;13.48;10.05;;;15.10;30.80;;;;;;5151944;27;45329;-69
2024/01/12 06:42:36;;;;;;;12.32;9.55;;;15.20;30.60;;;;;;5151439;27;45330;-68
2024/01/12 06:45:06;;;;;;;13.98;10.20;;;15.30;30.50;;;;;;5151480;27;45392;-69
2024/01/12 06:47:33;;;;;;;13.15;10.23;;;15.40;30.40;;;;;;5151599;27;45372;-69
2024/01/12 06:50:00;;;;;;;13.02;9.50;;;15.50;30.20;;;;;;5151965;27;45364;-69
2024/01/12 06:52:27;;;;;;;13.77;9.90;;;15.50;30.10;;;;;;5151841;27;45565;-69
2024/01/12 06:54:53;;;;;;;14.00;10.35;;;15.60;30.00;;;;;;5151091;27;45294;-69
2024/01/12 06:57:22;;;;;;;13.75;9.88;;;15.60;30.00;;;;;;5151596;27;45302;-68
2024/01/12 06:59:49;;;;;;;13.00;8.45;;;15.70;29.90;;;;;;5151140;27;45378;-69
2024/01/12 07:02:18;;;;;;;12.63;8.07;;;15.70;29.90;;;;;;5145792;27;45372;-70
2024/01/12 07:04:45;;;;;;;10.65;7.63;;;15.80;29.80;;;;;;5143576;27;45651;-70
2024/01/12 07:07:12;;;;;;;11.07;7.70;;;15.90;29.80;;;;;;5148339;27;45376;-71
2024/01/12 07:09:39;;;;;;;12.93;7.82;;;16.00;29.70;;;;;;5148295;27;45441;-71
2024/01/12 07:12:06;;;;;;;13.18;7.80;;;16.10;29.70;;;;;;5153240;27;45496;-68
2024/01/12 07:14:34;;;;;;;13.80;8.30;;;16.10;29.60;;;;;;5149262;27;47434;-70
2024/01/12 07:17:01;;;;;;;10.45;7.40;;;16.20;29.50;;;;;;5148940;27;45427;-68
2024/01/12 07:19:28;;;;;;;12.73;7.15;;;16.30;29.50;;;;;;5148520;27;45313;-73
2024/01/12 07:21:55;;;;;;;11.05;7.45;;;16.30;29.40;;;;;;5149334;27;45347;-68
2024/01/12 07:24:22;;;;;;;10.05;6.93;;;16.40;29.40;;;;;;5143302;27;46389;-71
2024/01/12 07:26:48;;;;;;;11.55;7.88;;;16.40;29.40;;;;;;5139617;27;45768;-69
2024/01/12 07:29:16;;;;;;;10.93;7.80;;;16.40;29.40;;;;;;5142527;27;45355;-67
2024/01/12 07:31:44;;;;;;;13.90;7.53;;;16.50;29.30;;;;;;5146208;27;45401;-71
2024/01/12 07:34:11;;;;;;;13.18;7.97;;;16.60;29.30;;;;;;5139495;27;46304;-71
2024/01/12 07:36:38;;;;;;;11.88;7.72;;;16.60;29.50;;;;;;5141977;27;45494;-70
2024/01/12 07:39:07;;;;;;;12.50;7.78;;;16.60;29.30;;;;;;5148774;27;45309;-71
2024/01/12 07:41:34;;;;;;;11.63;7.82;;;16.60;29.30;;;;;;5148699;27;45273;-71
2024/01/12 07:44:00;;;;;;;11.27;7.38;;;16.70;29.60;;;;;;5141965;27;45501;-67
2024/01/12 07:46:28;;;;;;;12.80;7.88;;;16.70;29.80;;;;;;5147691;27;45436;-71
2024/01/12 07:48:59;;;;;;;11.77;6.95;;;16.70;29.80;;;;;;5149277;27;45377;-73
2024/01/12 07:51:26;;;;;;;11.80;7.35;;;16.80;30.00;;;;;;5148919;27;45487;-72
2024/01/12 07:53:53;;;;;;;10.90;7.30;;;16.80;29.80;;;;;;5140498;27;45435;-72
2024/01/12 07:56:20;;;;;;;13.73;7.28;;;16.90;29.80;;;;;;5148519;27;45352;-71
2024/01/12 07:58:47;;;;;;;9.25;6.55;;;16.90;29.80;;;;;;5148913;27;45289;-72
2024/01/12 08:01:14;;;;;;;13.70;7.32;;;17.00;29.70;;;;;;5145497;27;45279;-70
2024/01/12 08:03:41;;;;;;;11.45;7.13;;;17.00;29.70;;;;;;5144933;27;46272;-71
2024/01/12 08:06:09;;;;;;;8.13;6.53;;;17.10;29.70;;;;;;5148360;27;45454;-72
2024/01/12 08:08:36;;;;;;;8.93;6.70;;;17.10;29.50;;;;;;5148555;27;45259;-71
2024/01/12 08:11:04;;;;;;;14.13;7.00;;;17.10;29.70;;;;;;5148728;27;45243;-71
2024/01/12 08:13:30;;;;;;;12.57;7.13;;;17.20;29.70;;;;;;5145255;27;46628;-70
2024/01/12 08:15:58;;;;;;;10.23;7.47;;;17.20;29.70;;;;;;5148635;27;45502;-69
2024/01/12 08:18:25;;;;;;;12.48;7.63;;;17.20;29.60;;;;;;5143541;27;45260;-71
2024/01/12 08:20:52;;;;;;;9.13;6.55;;;17.30;29.70;;;;;;5146997;27;45658;-71
2024/01/12 08:23:20;;;;;;;11.65;6.78;;;17.30;29.50;;;;;;5146196;27;45577;-70
2024/01/12 08:25:47;;;;;;;9.40;6.60;;;17.30;29.50;;;;;;5147583;27;45536;-69
2024/01/12 08:28:14;;;;;;;10.32;6.90;;;17.40;29.60;;;;;;5145475;27;45633;-71
2024/01/12 08:30:41;;;;;;;13.40;6.93;;;17.40;29.50;;;;;;5147179;27;45550;-70
2024/01/12 08:33:08;;;;;;;12.35;6.70;;;17.40;29.50;;;;;;5146547;27;46396;-70
2024/01/12 08:35:35;;;;;;;9.10;6.47;;;17.50;29.50;;;;;;5144404;27;45376;-70
2024/01/12 08:38:02;;;;;;;11.93;6.80;;;17.50;29.50;;;;;;5146968;27;45489;-72
2024/01/12 08:40:30;;;;;;;10.02;6.82;;;17.50;29.40;;;;;;5146750;27;45429;-69
2024/01/12 08:42:57;;;;;;;8.20;6.07;;;17.50;29.40;;;;;;5146586;27;45444;-67
2024/01/12 08:45:24;;;;;;;10.80;6.50;;;17.50;29.50;;;;;;5142797;27;45578;-68
2024/01/12 08:47:51;;;;;;;9.48;6.57;;;17.50;29.40;;;;;;5146462;27;45519;-68
2024/01/12 08:50:21;;;;;;;8.57;6.07;;;17.50;29.30;;;;;;5144497;27;45627;-69
2024/01/12 08:52:48;;;;;;;9.95;6.32;;;17.50;29.30;;;;;;5147359;27;46641;-69
2024/01/12 08:55:15;;;;;;;10.93;6.90;;;17.50;29.30;;;;;;5144631;27;45488;-69
2024/01/12 08:57:44;;;;;;;8.07;6.50;;;17.60;29.30;;;;;;5139631;27;45460;-68
2024/01/12 09:00:12;;;;;;;9.90;7.22;;;17.60;29.30;;;;;;5146192;27;45451;-67
2024/01/12 09:02:39;;;;;;;13.75;6.35;;;17.60;29.30;;;;;;5146616;27;45605;-68
2024/01/12 09:05:08;;;;;;;10.43;6.65;;;17.60;29.80;;;;;;5145315;27;45445;-69
2024/01/12 09:07:35;;;;;;;11.73;7.18;;;17.70;29.30;;;;;;5146920;27;45460;-69
2024/01/12 09:10:02;;;;;;;9.38;6.30;;;17.70;29.30;;;;;;5146374;27;45586;-68
2024/01/12 09:12:29;;;;;;;9.20;6.50;;;17.70;29.30;;;;;;5144668;27;45500;-68
2024/01/12 09:14:57;;;;;;;9.52;6.55;;;17.60;29.20;;;;;;5144548;27;45465;-69
2024/01/12 09:17:24;;;;;;;12.80;7.22;;;17.70;29.30;;;;;;5147123;27;45420;-68
2024/01/12 09:19:51;;;;;;;12.57;6.93;;;17.60;29.20;;;;;;5145725;27;45463;-69
2024/01/12 09:22:18;;;;;;;10.80;7.30;;;17.70;29.20;;;;;;5143388;27;45451;-69
2024/01/12 09:24:45;;;;;;;10.98;6.72;;;17.70;29.20;;;;;;5142815;27;45999;-69
2024/01/12 09:27:12;;;;;;;9.75;6.78;;;17.70;29.30;;;;;;5145994;27;45400;-68
2024/01/12 09:29:39;;;;;;;10.13;6.63;;;17.70;29.20;;;;;;5143261;27;45398;-68
2024/01/12 09:32:09;;;;;;;12.55;7.03;;;17.80;29.30;;;;;;5145940;27;45482;-68
2024/01/12 09:34:36;;;;;;;10.48;7.43;;;17.80;29.30;;;;;;5144881;27;45447;-69
2024/01/12 09:37:03;;;;;;;10.70;6.78;;;17.80;29.30;;;;;;5146200;27;45437;-69
2024/01/12 09:39:30;;;;;;;10.73;6.68;;;17.80;29.20;;;;;;5145522;27;45521;-69
2024/01/12 09:42:02;;;;;;;13.13;6.85;;;17.90;29.30;;;;;;5145320;27;46408;-69
2024/01/12 09:44:29;;;;;;;10.80;7.50;;;17.90;29.20;;;;;;5142444;27;45522;-68
2024/01/12 09:46:57;;;;;;;11.73;7.75;;;17.90;29.20;;;;;;5144169;27;45267;-70
2024/01/12 09:49:27;;;;;;;11.02;7.55;;;17.90;29.20;;;;;;5146708;27;45463;-69
2024/01/12 09:51:54;;;;;;;12.35;7.40;;;17.90;29.20;;;;;;5144436;27;46842;-67
2024/01/12 09:54:21;;;;;;;11.57;6.88;;;17.90;29.20;;;;;;5144542;27;45385;-70
2024/01/12 09:56:48;;;;;;;11.82;7.82;;;17.90;29.20;;;;;;5145327;27;45571;-69
2024/01/12 09:59:16;;;;;;;13.25;7.72;;;17.90;29.20;;;;;;5145842;27;45473;-69
2024/01/12 10:01:43;;;;;;;10.85;7.70;;;18.00;29.30;;;;;;5145765;27;45562;-68
2024/01/12 10:04:09;;;;;;;12.73;7.63;;;18.00;29.20;;;;;;5134391;27;45417;-70
2024/01/12 10:06:38;;;;;;;14.93;7.93;;;18.00;29.20;;;;;;5135675;27;45275;-67
2024/01/12 10:09:04;;;;;;;16.70;7.90;;;18.00;29.10;;;;;;5146085;27;45572;-67
2024/01/12 10:11:31;;;;;;;15.50;8.77;;;18.00;29.10;;;;;;5145676;27;46371;-67
2024/01/12 10:13:58;;;;;;;11.95;7.85;;;18.00;29.70;;;;;;5145982;27;45295;-67
2024/01/12 10:16:28;;;;;;;12.23;7.70;;;18.00;29.30;;;;;;5145077;27;45424;-69
2024/01/12 10:18:56;;;;;;;12.48;8.02;;;18.00;29.40;;;;;;5145642;27;45470;-68
2024/01/12 10:21:24;;;;;;;14.98;8.65;;;18.10;29.30;;;;;;5145968;27;46262;-67
2024/01/12 10:23:52;;;;;;;10.20;7.53;;;18.10;29.30;;;;;;5135211;27;45471;-67
2024/01/12 10:26:19;;;;;;;13.35;7.45;;;18.10;29.30;;;;;;5145771;27;45501;-66
2024/01/12 10:28:45;;;;;;;12.20;7.22;;;18.20;29.40;;;;;;5145189;27;45472;-67
2024/01/12 10:31:12;;;;;;;12.15;7.63;;;18.20;29.30;;;;;;5145359;27;45456;-66
2024/01/12 10:33:41;;;;;;;14.98;7.68;;;18.20;29.40;;;;;;5139212;27;45463;-69
2024/01/12 10:36:11;;;;;;;11.20;7.25;;;18.20;29.30;;;;;;5145561;27;45392;-69
2024/01/12 10:38:38;;;;;;;11.80;8.23;;;18.20;29.30;;;;;;5138139;27;45258;-67
2024/01/12 10:41:07;;;;;;;13.05;7.50;;;18.30;29.30;;;;;;5145543;27;45605;-69
2024/01/12 10:43:36;;;;;;;10.82;7.22;;;18.30;29.20;;;;;;5144028;27;45670;-69
2024/01/12 10:46:02;;;;;;;12.20;8.30;;;18.30;29.20;;;;;;5146077;27;45540;-70
2024/01/12 10:48:30;;;;;;;11.88;8.30;;;18.30;29.10;;;;;;5145606;27;45509;-69
2024/01/12 10:50:59;;;;;;;12.88;7.78;;;18.20;29.00;;;;;;5144791;27;46228;-69
2024/01/12 10:53:29;;;;;;;11.10;7.90;;;18.20;29.20;;;;;;5143525;27;45372;-67
2024/01/12 10:55:58;;;;;;;15.65;8.00;;;18.20;29.30;;;;;;5145250;27;45259;-67
2024/01/12 10:58:26;;;;;;;9.88;6.90;;;18.30;29.40;;;;;;5140580;27;45491;-65
2024/01/12 11:00:53;;;;;;;12.15;8.25;;;18.30;29.40;;;;;;5144617;27;45413;-66
2024/01/12 11:03:20;;;;;;;11.25;7.75;;;18.40;29.40;;;;;;5143001;27;45508;-68
2024/01/12 11:05:48;;;;;;;10.35;6.88;;;18.40;29.40;;;;;;5145301;27;45665;-66
2024/01/12 11:08:14;;;;;;;12.82;7.47;;;18.40;29.40;;;;;;5146373;27;45421;-67
2024/01/12 11:10:43;;;;;;;9.20;6.95;;;18.40;29.30;;;;;;5145829;27;46311;-67
2024/01/12 11:13:13;;;;;;;11.73;7.78;;;18.40;29.30;;;;;;5147179;27;45293;-67
2024/01/12 11:15:42;;;;;;;10.18;7.05;;;18.40;29.30;;;;;;5148780;27;45438;-68
2024/01/12 11:18:08;;;;;;;11.02;7.13;;;18.50;29.30;;;;;;5144628;27;45389;-69
2024/01/12 11:20:35;;;;;;;11.85;7.72;;;18.50;29.30;;;;;;5147261;27;46481;-69
2024/01/12 11:23:02;;;;;;;9.93;6.35;;;18.50;29.30;;;;;;5149524;27;45337;-69
2024/01/12 11:25:29;;;;;;;12.75;7.90;;;18.50;29.30;;;;;;5150310;27;45336;-69
2024/01/12 11:27:56;;;;;;;11.50;7.18;;;18.50;29.20;;;;;;5150801;27;45351;-69
2024/01/12 11:30:24;;;;;;;12.52;7.53;;;18.60;29.30;;;;;;5151061;27;45398;-71
2024/01/12 11:33:02;;;;;;;10.60;7.03;;;18.60;29.30;;;;;;5150768;27;45156;-69
2024/01/12 11:35:30;;;;;;;11.07;6.80;;;18.60;29.30;;;;;;5151277;27;45278;-70
2024/01/12 11:38:00;;;;;;;11.50;6.95;;;18.60;29.20;;;;;;5151037;27;45346;-70
2024/01/12 11:40:28;;;;;;;10.77;7.07;;;18.70;29.30;;;;;;5150930;27;46665;-70
2024/01/12 11:42:55;;;;;;;10.25;6.90;;;18.70;29.30;;;;;;5151202;27;45638;-69
2024/01/12 11:45:22;;;;;;;10.27;7.03;;;18.70;29.30;;;;;;5150872;27;45222;-70
2024/01/12 11:47:49;;;;;;;11.52;7.55;;;18.70;29.30;;;;;;5150731;27;45479;-69
2024/01/12 11:50:18;;;;;;;10.88;7.47;;;18.70;29.30;;;;;;5150813;27;45311;-70
2024/01/12 11:52:55;;;;;;;9.90;7.47;;;18.80;29.30;;;;;;5150618;27;45264;-69
2024/01/12 11:55:22;;;;;;;10.65;7.25;;;18.80;29.30;;;;;;5150547;27;45380;-70
2024/01/12 11:57:49;;;;;;;9.43;7.05;;;18.80;29.30;;;;;;5150746;27;45431;-70
2024/01/12 12:00:16;;;;;;;12.00;6.97;;;18.80;29.20;;;;;;5150302;27;45507;-70
2024/01/12 12:02:43;;;;;;;9.98;7.00;;;18.80;29.20;;;;;;5150470;27;45319;-69
2024/01/12 12:05:10;;;;;;;10.45;7.15;;;18.80;29.30;;;;;;5150416;27;45351;-70
2024/01/12 12:07:40;;;;;;;10.98;8.07;;;18.80;29.30;;;;;;5150738;27;45297;-70
2024/01/12 12:10:08;;;;;;;10.90;8.05;;;18.80;29.30;;;;;;5150113;27;46623;-69
2024/01/12 12:12:36;;;;;;;11.27;7.85;;;18.90;29.30;;;;;;5150314;27;45486;-69
2024/01/12 12:15:04;;;;;;;12.45;7.28;;;18.80;29.20;;;;;;5148185;27;45371;-68
2024/01/12 12:17:31;;;;;;;15.90;7.40;;;18.90;29.80;;;;;;5147387;27;45384;-69
2024/01/12 12:19:58;;;;;;;10.57;7.25;;;18.90;29.40;;;;;;5148435;27;45343;-69
2024/01/12 12:22:25;;;;;;;10.43;7.53;;;18.90;29.40;;;;;;5149820;27;45310;-68
2024/01/12 12:24:53;;;;;;;12.57;7.93;;;18.90;29.40;;;;;;5149635;27;45423;-68
2024/01/12 12:27:20;;;;;;;11.15;7.47;;;18.90;29.40;;;;;;5150003;27;45336;-69
2024/01/12 12:29:47;;;;;;;13.32;8.10;;;19.00;29.50;;;;;;5149208;27;46256;-67
2024/01/12 12:32:14;;;;;;;12.98;8.00;;;19.00;29.50;;;;;;5148981;27;45305;-68
2024/01/12 12:34:43;;;;;;;17.52;8.90;;;19.00;29.50;;;;;;5146470;27;45506;-68
2024/01/12 12:37:09;;;;;;;15.73;8.57;;;19.00;29.30;;;;;;5148931;27;45299;-69